Time;durP1;ratioP1;P1;durP2;ratioP2;P2;SDS_P1;SDS_P2;PMS_P1;PMS_P2;Temp;Humidity;BMP_temperature;BMP_pressure;BME280_temperature;BME280_humidity;BME280_pressure;Samples;Min_cycle;Max_cycle;Signal;HPM_P1;HPM_P2
2021/07/26 00:00:28;;;;;;;22.42;9.25;;;;;;;19.49;64.88;98477.95;2210472;81;20965;-58
2021/07/26 00:03:30;;;;;;;21.52;8.83;;;;;;;19.51;64.57;98473.31;2188623;81;21032;-58
2021/07/26 00:06:31;;;;;;;22.32;9.08;;;;;;;19.52;64.61;98474.14;2210406;81;20937;-59
2021/07/26 00:09:31;;;;;;;21.17;9.10;;;;;;;19.53;64.72;98475.31;2210307;80;21009;-58
2021/07/26 00:12:33;;;;;;;23.32;9.70;;;;;;;19.56;64.57;98480.30;2209899;81;21495;-58
2021/07/26 00:15:33;;;;;;;24.55;10.63;;;;;;;19.58;64.53;98476.16;2210347;81;21554;-58
2021/07/26 00:18:34;;;;;;;24.47;10.35;;;;;;;19.59;64.78;98482.33;2210638;81;20976;-59
2021/07/26 00:21:34;;;;;;;23.00;9.90;;;;;;;19.58;64.68;98477.48;2210316;81;20996;-60
2021/07/26 00:24:34;;;;;;;24.77;9.50;;;;;;;19.58;64.78;98485.46;2210432;81;21009;-58
2021/07/26 00:27:35;;;;;;;21.30;8.95;;;;;;;19.58;64.73;98485.46;2210205;81;20929;-58
2021/07/26 00:30:35;;;;;;;22.32;9.48;;;;;;;19.61;64.84;98476.34;2210341;81;21480;-58
2021/07/26 00:33:46;;;;;;;20.02;8.25;;;;;;;19.61;64.86;98466.55;2210181;81;20991;-58
2021/07/26 00:36:39;;;;;;;21.50;8.78;;;;;;;19.65;64.89;98468.37;2188686;81;21495;-58
2021/07/26 00:39:39;;;;;;;21.70;9.38;;;;;;;19.67;64.91;98467.23;2210448;81;20992;-58
2021/07/26 00:42:40;;;;;;;24.90;9.98;;;;;;;19.68;65.09;98471.56;2210323;81;20984;-58
2021/07/26 00:45:40;;;;;;;26.30;10.60;;;;;;;19.68;65.70;98484.02;2210419;81;21088;-59
2021/07/26 00:48:41;;;;;;;21.52;9.78;;;;;;;19.60;66.91;98487.99;2210355;81;20960;-70
2021/07/26 00:51:41;;;;;;;22.32;9.85;;;;;;;19.48;67.11;98500.71;2210258;81;20977;-74
2021/07/26 00:54:42;;;;;;;23.77;9.83;;;;;;;19.43;68.37;98505.69;2210231;81;21475;-63
2021/07/26 00:57:42;;;;;;;21.50;9.43;;;;;;;19.33;67.75;98504.47;2210459;81;20993;-70
2021/07/26 01:00:42;;;;;;;24.32;9.65;;;;;;;19.29;68.00;98499.94;2210453;81;21084;-67
2021/07/26 01:03:43;;;;;;;22.42;9.65;;;;;;;19.28;68.40;98507.60;2210396;81;20977;-63
2021/07/26 01:06:43;;;;;;;22.55;10.23;;;;;;;19.27;67.97;98504.59;2210341;81;21000;-62
2021/07/26 01:09:44;;;;;;;23.50;9.93;;;;;;;19.24;68.23;98505.39;2216821;80;21004;-60
2021/07/26 01:12:44;;;;;;;29.37;11.22;;;;;;;19.17;68.47;98502.04;2220286;80;22198;-70
2021/07/26 01:15:45;;;;;;;23.55;10.00;;;;;;;19.11;68.51;98496.03;2220599;80;21030;-61
2021/07/26 01:18:45;;;;;;;23.52;9.60;;;;;;;19.06;68.62;98494.32;2220392;80;21043;-74
2021/07/26 01:21:46;;;;;;;23.42;10.23;;;;;;;19.04;68.86;98485.17;2220796;80;21040;-65
2021/07/26 01:24:46;;;;;;;24.12;10.00;;;;;;;19.05;68.87;98482.05;2220588;80;20972;-71
2021/07/26 01:27:47;;;;;;;22.10;10.28;;;;;;;19.07;69.33;98477.90;2220613;80;20972;-69
2021/07/26 01:30:47;;;;;;;24.47;10.98;;;;;;;19.08;69.21;98475.56;2220650;80;21613;-66
2021/07/26 01:33:48;;;;;;;23.77;10.40;;;;;;;19.09;69.33;98482.05;2220801;80;21515;-60
2021/07/26 01:36:48;;;;;;;22.87;10.78;;;;;;;19.04;69.95;98469.23;2220962;80;20988;-65
2021/07/26 01:39:49;;;;;;;22.73;10.10;;;;;;;18.97;69.60;98471.35;2220655;80;21016;-67
2021/07/26 01:42:59;;;;;;;23.62;10.28;;;;;;;18.98;69.61;98452.59;2221048;80;20972;-64
2021/07/26 01:45:52;;;;;;;22.87;9.98;;;;;;;18.95;70.11;98450.25;2190914;80;21399;-67
2021/07/26 01:48:53;;;;;;;22.87;10.08;;;;;;;18.95;70.11;98450.25;2220842;80;21003;-71
2021/07/26 01:51:54;;;;;;;22.87;10.43;;;;;;;18.94;70.22;98446.42;2220952;80;21039;-66
2021/07/26 01:54:54;;;;;;;23.77;10.70;;;;;;;18.96;70.18;98447.09;2220814;80;21451;-66
2021/07/26 01:57:56;;;;;;;23.67;10.40;;;;;;;18.91;70.77;98443.58;2220720;80;21016;-69
2021/07/26 02:00:57;;;;;;;22.75;9.63;;;;;;;18.84;70.69;98447.31;2220662;80;21083;-64
2021/07/26 02:03:57;;;;;;;24.95;10.18;;;;;;;18.82;70.72;98441.80;2220906;80;20964;-62
2021/07/26 02:06:57;;;;;;;24.43;10.05;;;;;;;18.83;70.94;98443.48;2220563;80;21063;-65
2021/07/26 02:09:58;;;;;;;26.15;10.65;;;;;;;18.83;71.10;98441.68;2220645;80;21000;-65
2021/07/26 02:12:58;;;;;;;24.60;11.50;;;;;;;18.81;71.32;98445.48;2220727;80;20960;-59
2021/07/26 02:15:59;;;;;;;22.45;10.28;;;;;;;18.79;71.37;98449.62;2220783;80;20976;-61
2021/07/26 02:18:59;;;;;;;24.20;10.35;;;;;;;18.77;72.50;98444.94;2220631;80;21471;-60
2021/07/26 02:21:59;;;;;;;23.12;10.18;;;;;;;18.76;72.40;98445.95;2220615;80;21510;-58
2021/07/26 02:25:01;;;;;;;23.87;10.83;;;;;;;18.76;72.28;98439.78;2220966;80;21067;-69
2021/07/26 02:28:01;;;;;;;26.12;10.72;;;;;;;18.76;72.04;98450.41;2220909;80;20976;-70
2021/07/26 02:31:02;;;;;;;24.65;9.93;;;;;;;18.77;72.71;98450.25;2220784;80;20960;-64
2021/07/26 02:34:02;;;;;;;24.43;10.18;;;;;;;18.77;72.07;98447.59;2220743;80;21015;-64
2021/07/26 02:37:03;;;;;;;26.20;10.55;;;;;;;18.78;72.70;98446.61;2220453;80;21062;-68
2021/07/26 02:40:03;;;;;;;24.95;10.63;;;;;;;18.77;72.62;98438.30;2220732;80;21478;-60
2021/07/26 02:43:03;;;;;;;23.38;10.10;;;;;;;18.79;73.03;98428.84;2220690;80;21007;-65
2021/07/26 02:46:06;;;;;;;24.40;10.45;;;;;;;18.79;72.46;98431.02;2220403;80;20996;-66
2021/07/26 02:49:06;;;;;;;24.27;10.60;;;;;;;18.82;72.49;98423.20;2220851;80;21069;-60
2021/07/26 02:52:06;;;;;;;22.37;10.05;;;;;;;18.82;72.68;98413.91;2220760;80;21482;-62
2021/07/26 02:55:07;;;;;;;23.30;9.60;;;;;;;18.82;73.87;98396.64;2220251;80;20976;-59
2021/07/26 02:58:07;;;;;;;20.95;9.10;;;;;;;18.82;73.05;98397.97;2220886;80;20985;-58
2021/07/26 03:01:08;;;;;;;25.77;9.63;;;;;;;18.81;73.02;98389.18;2220812;80;21013;-60
2021/07/26 03:04:10;;;;;;;23.25;9.83;;;;;;;18.81;73.48;98388.36;2220720;80;20993;-63
2021/07/26 03:07:11;;;;;;;25.60;10.63;;;;;;;18.80;73.85;98384.02;2220787;80;21463;-59
2021/07/26 03:10:11;;;;;;;27.05;11.18;;;;;;;18.77;73.59;98393.64;2220620;80;20999;-58
2021/07/26 03:13:11;;;;;;;24.55;10.28;;;;;;;18.77;73.45;98401.61;2220841;80;20999;-65
2021/07/26 03:16:12;;;;;;;23.42;10.50;;;;;;;18.78;73.89;98424.54;2220733;80;20969;-58
2021/07/26 03:19:12;;;;;;;26.50;13.55;;;;;;;18.74;74.23;98435.12;2220708;80;20997;-65
2021/07/26 03:22:13;;;;;;;26.60;13.48;;;;;;;18.69;74.18;98447.52;2220726;80;21521;-58
2021/07/26 03:25:15;;;;;;;27.95;12.90;;;;;;;18.72;74.01;98450.38;2220355;80;21507;-64
2021/07/26 03:28:15;;;;;;;29.23;14.80;;;;;;;18.77;74.20;98458.22;2220830;80;20979;-63
2021/07/26 03:31:16;;;;;;;34.75;19.42;;;;;;;18.84;74.07;98462.43;2220549;80;20999;-61
2021/07/26 03:34:16;;;;;;;28.73;13.72;;;;;;;18.85;74.26;98469.42;2220672;80;20971;-74
2021/07/26 03:37:17;;;;;;;27.82;14.03;;;;;;;18.88;74.20;98471.80;2220583;80;21079;-65
2021/07/26 03:40:17;;;;;;;28.38;12.43;;;;;;;18.91;74.21;98467.49;2220673;80;21534;-67
2021/07/26 03:43:17;;;;;;;26.80;12.58;;;;;;;18.90;74.56;98469.80;2220547;80;21016;-66
2021/07/26 03:46:18;;;;;;;25.90;12.03;;;;;;;18.88;74.59;98463.83;2220839;80;21004;-66
2021/07/26 03:49:18;;;;;;;25.72;11.43;;;;;;;18.86;74.76;98469.30;2220961;80;21019;-66
2021/07/26 03:52:19;;;;;;;25.82;12.65;;;;;;;18.88;74.76;98470.47;2220833;80;20952;-66
2021/07/26 03:55:20;;;;;;;29.82;14.13;;;;;;;18.86;75.08;98465.30;2220472;80;21503;-70
2021/07/26 03:58:21;;;;;;;24.18;11.73;;;;;;;18.88;75.08;98473.12;2220426;80;21027;-65
2021/07/26 04:01:21;;;;;;;26.37;12.20;;;;;;;18.88;75.24;98475.78;2220930;80;20972;-72
2021/07/26 04:04:22;;;;;;;24.50;11.63;;;;;;;18.93;75.43;98478.78;2220802;80;20987;-62
2021/07/26 04:07:25;;;;;;;24.65;11.75;;;;;;;18.99;74.99;98480.84;2220659;80;21043;-69
2021/07/26 04:10:25;;;;;;;28.20;12.15;;;;;;;19.00;75.08;98493.63;2192080;80;21036;-66
2021/07/26 04:13:25;;;;;;;25.72;12.25;;;;;;;19.02;75.37;98512.89;2223421;80;21045;-63
2021/07/26 04:16:26;;;;;;;26.65;11.80;;;;;;;19.04;75.34;98514.41;2223436;80;21439;-63
2021/07/26 04:19:27;;;;;;;27.00;12.13;;;;;;;19.04;75.76;98510.94;2222894;80;20992;-63
2021/07/26 04:22:27;;;;;;;25.60;11.60;;;;;;;18.98;75.54;98499.60;2223391;80;20980;-61
2021/07/26 04:25:28;;;;;;;24.72;11.33;;;;;;;18.93;75.88;98494.73;2222989;80;21545;-63
2021/07/26 04:28:28;;;;;;;32.85;17.42;;;;;;;18.89;75.95;98496.02;2223000;80;21582;-60
2021/07/26 04:31:29;;;;;;;30.92;15.15;;;;;;;18.92;75.98;98504.19;2223494;80;21013;-65
2021/07/26 04:34:29;;;;;;;27.17;12.85;;;;;;;18.95;76.17;98499.89;2223523;80;20949;-68
2021/07/26 04:37:30;;;;;;;28.50;13.58;;;;;;;18.93;76.07;98497.39;2223379;80;20963;-65
2021/07/26 04:40:30;;;;;;;25.80;12.05;;;;;;;18.95;76.17;98490.11;2223369;80;21015;-60
2021/07/26 04:43:31;;;;;;;26.55;11.83;;;;;;;19.04;76.28;98496.31;2223244;80;21069;-61
2021/07/26 04:46:31;;;;;;;26.57;12.35;;;;;;;19.17;76.17;98508.69;2223395;80;21511;-65
2021/07/26 04:49:32;;;;;;;27.50;12.28;;;;;;;19.25;76.03;98507.07;2223394;80;20968;-62
2021/07/26 04:52:32;;;;;;;30.43;14.18;;;;;;;19.29;75.92;98505.27;2223492;80;21064;-61
2021/07/26 04:55:33;;;;;;;26.05;12.73;;;;;;;19.32;75.91;98508.11;2223206;80;21079;-59
2021/07/26 04:58:34;;;;;;;29.15;12.28;;;;;;;19.30;75.92;98505.61;2223517;80;21032;-67
2021/07/26 05:01:34;;;;;;;24.72;12.20;;;;;;;19.31;76.05;98499.31;2223330;80;21014;-69
2021/07/26 05:04:35;;;;;;;25.23;11.53;;;;;;;19.34;76.02;98511.46;2223020;80;21020;-65
2021/07/26 05:07:36;;;;;;;26.45;12.45;;;;;;;19.48;76.16;98520.19;2223240;80;20953;-62
2021/07/26 05:10:36;;;;;;;24.80;12.45;;;;;;;19.63;75.98;98513.77;2215236;80;21065;-67
2021/07/26 05:13:36;;;;;;;27.70;13.25;;;;;;;19.76;75.78;98523.14;2210432;81;20949;-64
2021/07/26 05:16:37;;;;;;;26.02;13.15;;;;;;;19.77;75.53;98524.31;2210343;81;21004;-71
2021/07/26 05:19:37;;;;;;;29.25;12.80;;;;;;;19.76;75.66;98529.80;2210213;81;21557;-67
2021/07/26 05:22:39;;;;;;;25.12;12.10;;;;;;;19.79;75.74;98528.99;2209992;81;20969;-64
2021/07/26 05:25:39;;;;;;;26.30;13.25;;;;;;;19.81;75.75;98527.02;2210479;81;21531;-63
2021/07/26 05:28:40;;;;;;;25.48;13.88;;;;;;;19.89;75.77;98531.03;2210393;81;21029;-65
2021/07/26 05:31:41;;;;;;;26.82;14.07;;;;;;;19.98;75.76;98527.07;2210354;81;21031;-64
2021/07/26 05:34:43;;;;;;;27.70;13.88;;;;;;;20.06;75.65;98525.27;2210437;81;20969;-63
2021/07/26 05:37:43;;;;;;;26.75;13.48;;;;;;;20.19;75.51;98525.31;2188594;81;21007;-69
2021/07/26 05:40:44;;;;;;;24.52;11.83;;;;;;;20.22;75.46;98522.32;2210673;81;21013;-66
2021/07/26 05:43:44;;;;;;;25.57;12.00;;;;;;;20.30;75.31;98536.14;2210359;81;21004;-67
2021/07/26 05:46:45;;;;;;;25.27;12.75;;;;;;;20.32;75.29;98543.48;2210469;81;21131;-60
2021/07/26 05:49:45;;;;;;;26.27;13.10;;;;;;;20.40;75.27;98542.16;2210164;81;21086;-66
2021/07/26 05:52:46;;;;;;;26.35;13.48;;;;;;;20.48;75.41;98539.52;2210301;81;20987;-66
2021/07/26 05:55:46;;;;;;;26.82;13.53;;;;;;;20.56;75.18;98538.71;2210348;81;21439;-65
2021/07/26 05:58:49;;;;;;;25.60;12.80;;;;;;;20.68;75.19;98537.41;2210319;81;21475;-65
2021/07/26 06:01:49;;;;;;;27.00;13.32;;;;;;;20.72;75.08;98538.74;2188618;81;20996;-65
2021/07/26 06:04:49;;;;;;;25.82;13.15;;;;;;;20.79;74.63;98542.06;2210463;81;21479;-65
2021/07/26 06:07:50;;;;;;;28.38;13.78;;;;;;;20.89;74.96;98540.92;2210208;81;20976;-62
2021/07/26 06:10:50;;;;;;;31.77;13.78;;;;;;;20.95;74.75;98535.42;2210281;80;21005;-64
2021/07/26 06:13:51;;;;;;;26.95;13.88;;;;;;;21.01;74.63;98538.74;2210480;81;20969;-61
2021/07/26 06:16:52;;;;;;;26.05;12.85;;;;;;;21.06;74.41;98535.09;2210328;81;20997;-58
2021/07/26 06:19:54;;;;;;;26.80;12.80;;;;;;;21.34;74.50;98540.55;2187554;81;21040;-66
2021/07/26 06:22:55;;;;;;;24.30;12.00;;;;;;;21.90;74.56;98539.25;2210869;81;20973;-63
2021/07/26 06:25:55;;;;;;;24.97;12.77;;;;;;;22.45;73.72;98543.64;2210755;81;21061;-60
2021/07/26 06:28:56;;;;;;;25.20;12.45;;;;;;;22.93;72.50;98534.60;2210297;81;21085;-70
2021/07/26 06:31:57;;;;;;;23.50;12.95;;;;;;;23.19;71.65;98538.27;2210628;81;20965;-62
2021/07/26 06:34:58;;;;;;;25.47;12.10;;;;;;;23.41;71.28;98544.56;2210571;81;20949;-68
2021/07/26 06:37:59;;;;;;;23.67;11.90;;;;;;;23.62;70.47;98545.67;2210875;81;21084;-62
2021/07/26 06:40:59;;;;;;;24.30;12.20;;;;;;;23.82;70.09;98548.13;2210709;81;21032;-65
2021/07/26 06:44:00;;;;;;;23.30;10.37;;;;;;;24.06;70.04;98539.48;2210618;81;21539;-62
2021/07/26 06:47:00;;;;;;;23.07;11.40;;;;;;;24.25;68.19;98535.41;2210721;81;21536;-71
2021/07/26 06:50:00;;;;;;;21.93;9.73;;;;;;;24.52;69.37;98535.67;2210993;81;20961;-61
2021/07/26 06:53:01;;;;;;;25.13;9.97;;;;;;;24.83;67.87;98536.73;2210871;81;21066;-64
2021/07/26 06:56:01;;;;;;;23.80;9.20;;;;;;;24.73;67.54;98537.05;2210848;81;20941;-61
2021/07/26 06:59:02;;;;;;;21.30;9.37;;;;;;;24.91;67.35;98535.75;2210684;81;21052;-73
2021/07/26 07:02:02;;;;;;;21.37;9.77;;;;;;;25.42;66.52;98533.39;2210677;81;21000;-63
2021/07/26 07:05:03;;;;;;;22.30;10.00;;;;;;;25.67;65.66;98539.63;2210573;81;21491;-60
2021/07/26 07:08:03;;;;;;;24.37;9.40;;;;;;;25.93;64.58;98539.77;2210588;81;20950;-62
2021/07/26 07:11:04;;;;;;;22.50;9.57;;;;;;;25.92;64.27;98542.14;2210462;81;21071;-59
2021/07/26 07:14:05;;;;;;;21.70;9.18;;;;;;;26.13;63.98;98539.56;2210329;81;21056;-59
2021/07/26 07:17:05;;;;;;;20.87;9.00;;;;;;;26.26;62.98;98544.98;2210695;81;20984;-63
2021/07/26 07:20:06;;;;;;;22.60;10.03;;;;;;;26.36;62.65;98540.57;2210534;81;21507;-61
2021/07/26 07:23:06;;;;;;;21.33;9.30;;;;;;;26.45;63.43;98546.09;2210534;81;20989;-59
2021/07/26 07:26:07;;;;;;;22.20;9.47;;;;;;;26.66;61.62;98545.08;2210780;81;21013;-61
2021/07/26 07:29:07;;;;;;;21.43;8.83;;;;;;;26.56;61.40;98541.96;2210476;81;21024;-60
2021/07/26 07:32:12;;;;;;;22.60;8.90;;;;;;;26.81;61.71;98538.22;2210563;81;21012;-60
2021/07/26 07:35:11;;;;;;;18.65;7.85;;;;;;;27.08;61.13;98535.02;2188775;81;20980;-60
2021/07/26 07:38:11;;;;;;;22.83;7.70;;;;;;;27.24;60.14;98543.67;2210450;81;21119;-59
2021/07/26 07:41:11;;;;;;;19.53;7.70;;;;;;;27.26;58.30;98545.66;2210643;81;21020;-60
2021/07/26 07:44:12;;;;;;;21.33;7.80;;;;;;;27.49;58.60;98545.25;2210481;81;21770;-59
2021/07/26 07:47:14;;;;;;;21.43;7.67;;;;;;;27.70;58.37;98546.02;2210528;81;21007;-59
2021/07/26 07:50:16;;;;;;;18.62;6.97;;;;;;;27.56;57.65;98543.36;2210247;81;21041;-60
2021/07/26 07:53:17;;;;;;;19.70;7.87;;;;;;;27.55;58.01;98543.05;2210575;81;21530;-62
2021/07/26 07:56:17;;;;;;;19.47;7.77;;;;;;;27.40;57.92;98543.30;2210558;81;21017;-59
2021/07/26 07:59:18;;;;;;;20.70;7.60;;;;;;;27.27;57.99;98546.80;2210287;81;21048;-60
2021/07/26 08:02:19;;;;;;;20.00;7.30;;;;;;;27.24;55.36;98538.30;2210477;81;21027;-59
2021/07/26 08:05:19;;;;;;;19.27;7.63;;;;;;;26.66;56.77;98534.32;2210622;81;21048;-60
2021/07/26 08:08:20;;;;;;;20.45;7.33;;;;;;;26.23;57.83;98543.55;2210429;81;21535;-59
2021/07/26 08:11:21;;;;;;;19.03;8.03;;;;;;;26.41;58.52;98541.62;2216325;80;20953;-60
2021/07/26 08:14:21;;;;;;;20.73;7.87;;;;;;;26.76;57.75;98546.88;2221018;80;20937;-59
2021/07/26 08:17:21;;;;;;;20.03;6.60;;;;;;;27.16;58.63;98539.88;2221193;80;20964;-59
2021/07/26 08:20:22;;;;;;;19.83;6.53;;;;;;;27.76;57.56;98537.11;2220994;80;21012;-60
2021/07/26 08:23:22;;;;;;;19.43;6.50;;;;;;;28.18;54.83;98535.70;2220744;80;21052;-60
2021/07/26 08:26:23;;;;;;;15.35;5.90;;;;;;;28.24;53.40;98539.41;2220770;80;21051;-60
2021/07/26 08:29:24;;;;;;;16.87;6.20;;;;;;;28.41;54.12;98534.88;2220379;80;21503;-59
2021/07/26 08:32:24;;;;;;;17.23;5.40;;;;;;;28.68;53.51;98530.99;2220709;80;21012;-59
2021/07/26 08:35:25;;;;;;;15.77;5.70;;;;;;;28.66;53.12;98526.85;2220808;80;20996;-59
2021/07/26 08:38:25;;;;;;;19.48;6.03;;;;;;;28.93;52.52;98523.97;2220433;80;21096;-60
2021/07/26 08:41:26;;;;;;;16.30;5.47;;;;;;;29.12;52.90;98533.78;2220924;80;20980;-61
2021/07/26 08:44:27;;;;;;;17.45;5.78;;;;;;;29.24;51.30;98535.26;2220797;80;20992;-59
2021/07/26 08:47:29;;;;;;;15.20;5.83;;;;;;;29.24;51.30;98535.26;2220789;80;21099;-59
2021/07/26 08:50:30;;;;;;;;;;;;;;;29.23;50.95;98535.48;2223308;80;21068;-59
2021/07/26 08:53:30;;;;;;;15.67;5.60;;;;;;;29.04;49.68;98532.17;2220879;80;20136;-59
2021/07/26 08:56:32;;;;;;;17.45;6.28;;;;;;;28.31;49.80;98535.34;2220130;80;21507;-59
2021/07/26 08:59:32;;;;;;;15.73;5.80;;;;;;;27.64;51.19;98539.61;2220702;80;21011;-60
2021/07/26 09:02:32;;;;;;;19.10;6.13;;;;;;;27.16;52.32;98548.77;2221063;80;21035;-63
2021/07/26 09:05:34;;;;;;;15.58;5.85;;;;;;;26.73;52.70;98549.98;2220578;80;24378;-63
2021/07/26 09:08:35;;;;;;;15.73;5.70;;;;;;;26.41;53.15;98551.55;2220767;80;21035;-61
2021/07/26 09:11:35;;;;;;;18.03;5.83;;;;;;;26.02;53.76;98560.61;2220785;80;20995;-59
2021/07/26 09:14:36;;;;;;;17.60;6.60;;;;;;;25.64;54.79;98565.54;2220950;80;21035;-60
2021/07/26 09:17:37;;;;;;;16.52;6.17;;;;;;;25.64;54.79;98565.54;2220885;80;21072;-60
2021/07/26 09:20:39;;;;;;;17.67;5.83;;;;;;;25.52;55.41;98565.27;2220678;80;20991;-59
2021/07/26 09:23:39;;;;;;;18.70;6.78;;;;;;;25.34;55.70;98566.59;2220459;80;21586;-60
2021/07/26 09:26:40;;;;;;;18.30;6.80;;;;;;;24.91;56.41;98565.25;2220704;80;21064;-59
2021/07/26 09:29:40;;;;;;;19.63;7.07;;;;;;;24.15;57.74;98576.37;2220974;80;20937;-59
2021/07/26 09:32:41;;;;;;;21.33;7.27;;;;;;;23.70;59.60;98581.73;2220930;80;20925;-61
2021/07/26 09:35:41;;;;;;;20.03;7.13;;;;;;;23.62;60.40;98579.98;2220812;80;20996;-63
2021/07/26 09:38:42;;;;;;;20.67;7.00;;;;;;;23.61;60.46;98580.98;2220687;80;21562;-60
2021/07/26 09:41:43;;;;;;;22.73;7.70;;;;;;;23.67;60.73;98588.27;2220727;80;21035;-65
2021/07/26 09:44:43;;;;;;;18.60;6.33;;;;;;;23.68;60.41;98587.78;2220829;80;20968;-70
2021/07/26 09:47:44;;;;;;;20.53;6.97;;;;;;;23.75;59.55;98579.34;2220975;80;20961;-60
2021/07/26 09:50:44;;;;;;;17.63;6.13;;;;;;;23.77;59.94;98597.90;2220827;80;20988;-66
2021/07/26 09:53:45;;;;;;;20.50;6.30;;;;;;;23.98;60.21;98595.34;2220751;80;21020;-59
2021/07/26 09:56:46;;;;;;;11.03;3.93;;;;;;;24.06;59.08;98597.08;2220941;80;21451;-60
2021/07/26 09:59:46;;;;;;;11.90;3.60;;;;;;;24.10;57.18;98598.89;2220840;80;21035;-63
2021/07/26 10:02:47;;;;;;;14.13;4.83;;;;;;;23.90;57.64;98591.93;2221065;80;21020;-62
2021/07/26 10:05:47;;;;;;;15.33;4.40;;;;;;;23.92;59.19;98597.43;2221173;80;20972;-60
2021/07/26 10:08:48;;;;;;;15.73;5.33;;;;;;;24.32;59.30;98593.92;2221170;80;20969;-59
2021/07/26 10:11:48;;;;;;;17.60;4.70;;;;;;;24.71;59.69;98602.61;2220948;80;21031;-62
2021/07/26 10:14:49;;;;;;;15.27;4.93;;;;;;;25.10;58.46;98602.70;2220972;80;20964;-68
2021/07/26 10:17:50;;;;;;;17.87;6.37;;;;;;;25.38;57.11;98601.39;2221021;80;21551;-61
2021/07/26 10:20:50;;;;;;;14.67;5.10;;;;;;;25.44;56.47;98602.99;2220932;80;21055;-60
2021/07/26 10:23:52;;;;;;;20.10;5.77;;;;;;;25.41;55.96;98598.34;2221093;80;21007;-63
2021/07/26 10:26:58;;;;;;;19.23;5.30;;;;;;;25.23;56.09;98600.12;2220876;80;20996;-60
2021/07/26 10:29:59;;;;;;;15.78;5.00;;;;;;;25.11;55.37;98604.33;2177201;80;21019;-60
2021/07/26 10:33:00;;;;;;;17.10;5.70;;;;;;;24.80;56.69;98597.98;2221097;80;20957;-59
2021/07/26 10:36:01;;;;;;;18.48;5.97;;;;;;;25.09;57.39;98595.66;2220695;80;21091;-62
2021/07/26 10:39:02;;;;;;;18.63;5.87;;;;;;;25.22;56.85;98601.13;2220869;80;21490;-60
2021/07/26 10:42:02;;;;;;;16.00;4.77;;;;;;;25.35;56.76;98600.97;2220610;80;21016;-66
2021/07/26 10:45:04;;;;;;;14.95;5.20;;;;;;;25.62;55.67;98591.25;2220831;80;21559;-59
2021/07/26 10:48:05;;;;;;;17.07;5.17;;;;;;;25.78;55.38;98591.45;2220759;80;21012;-60
2021/07/26 10:51:05;;;;;;;16.53;5.33;;;;;;;25.94;54.69;98593.80;2221249;80;21003;-60
2021/07/26 10:54:05;;;;;;;14.50;5.30;;;;;;;25.94;55.23;98589.77;2220942;80;20921;-60
2021/07/26 10:57:08;;;;;;;15.98;5.60;;;;;;;26.04;54.51;98587.28;2220746;80;21078;-60
2021/07/26 11:00:09;;;;;;;15.80;5.42;;;;;;;26.36;54.61;98582.23;2221074;80;21486;-63
2021/07/26 11:03:09;;;;;;;19.97;6.10;;;;;;;26.62;53.49;98577.44;2221167;80;20969;-60
2021/07/26 11:06:10;;;;;;;20.47;6.10;;;;;;;26.80;54.32;98579.59;2221083;80;20999;-61
2021/07/26 11:09:10;;;;;;;17.97;6.10;;;;;;;27.49;53.33;98566.26;2221092;80;21011;-61
2021/07/26 11:12:10;;;;;;;17.40;5.57;;;;;;;28.21;52.71;98573.55;2214726;80;21013;-68
2021/07/26 11:15:11;;;;;;;17.53;5.77;;;;;;;28.78;51.33;98580.97;2210620;81;21037;-60
2021/07/26 11:18:12;;;;;;;17.93;5.97;;;;;;;28.39;50.21;98582.80;2210705;81;21012;-60
2021/07/26 11:21:12;;;;;;;13.03;5.20;;;;;;;28.80;51.56;98576.17;2210672;81;21012;-59
2021/07/26 11:24:13;;;;;;;16.27;5.70;;;;;;;29.49;49.95;98578.42;2210707;81;21063;-59
2021/07/26 11:27:13;;;;;;;19.83;6.27;;;;;;;28.79;48.83;98575.34;2210792;81;21225;-60
2021/07/26 11:30:16;;;;;;;17.17;5.83;;;;;;;28.42;49.92;98575.12;2210535;81;20961;-60
2021/07/26 11:33:16;;;;;;;17.50;6.28;;;;;;;28.61;49.78;98577.92;2188782;81;20965;-60
2021/07/26 11:36:17;;;;;;;19.85;6.20;;;;;;;28.76;47.86;98577.14;2210446;81;21531;-59
2021/07/26 11:39:18;;;;;;;18.53;6.13;;;;;;;28.32;47.56;98572.88;2210516;81;20956;-63
2021/07/26 11:42:18;;;;;;;16.17;6.20;;;;;;;27.52;49.44;98569.59;2210613;81;21012;-59
2021/07/26 11:45:18;;;;;;;16.97;6.47;;;;;;;27.17;49.83;98574.66;2210812;81;21021;-60
2021/07/26 11:48:19;;;;;;;16.77;6.37;;;;;;;27.03;51.18;98578.38;2210773;81;20976;-62
2021/07/26 11:51:19;;;;;;;17.30;6.77;;;;;;;27.06;52.04;98566.67;2210634;81;21065;-59
2021/07/26 11:54:20;;;;;;;18.57;7.03;;;;;;;27.07;50.52;98576.41;2210517;81;21048;-60
2021/07/26 11:57:21;;;;;;;18.62;6.80;;;;;;;26.62;51.58;98578.29;2210055;81;21465;-60
2021/07/26 12:00:22;;;;;;;19.50;6.87;;;;;;;26.80;52.99;98574.21;2210867;81;20992;-60
2021/07/26 12:03:22;;;;;;;13.47;5.20;;;;;;;27.83;50.88;98558.94;2210754;81;21052;-67
2021/07/26 12:06:23;;;;;;;15.07;5.60;;;;;;;28.01;48.30;98556.11;2210642;81;20992;-60
2021/07/26 12:09:23;;;;;;;15.07;5.53;;;;;;;28.06;48.53;98572.48;2210498;81;21495;-64
2021/07/26 12:12:25;;;;;;;17.67;6.13;;;;;;;28.25;47.96;98568.57;2210252;80;21563;-60
2021/07/26 12:15:25;;;;;;;14.13;5.03;;;;;;;28.56;48.25;98557.50;2210615;81;20976;-61
2021/07/26 12:18:26;;;;;;;10.33;4.30;;;;;;;28.63;47.25;98555.63;2210804;81;21021;-60
2021/07/26 12:21:26;;;;;;;13.87;5.13;;;;;;;28.52;43.97;98566.56;2210571;81;21011;-61
2021/07/26 12:24:27;;;;;;;14.17;5.27;;;;;;;27.64;46.43;98576.81;2210647;81;21480;-63
2021/07/26 12:27:27;;;;;;;17.27;5.80;;;;;;;27.82;48.28;98580.70;2210476;81;21452;-60
2021/07/26 12:30:28;;;;;;;14.50;5.90;;;;;;;28.40;48.27;98566.40;2210751;81;20969;-60
2021/07/26 12:33:28;;;;;;;16.80;6.00;;;;;;;28.50;47.13;98568.63;2210810;81;21301;-60
2021/07/26 12:36:29;;;;;;;15.90;5.87;;;;;;;28.51;46.14;98564.91;2210550;81;20941;-61
2021/07/26 12:39:29;;;;;;;15.57;5.97;;;;;;;29.07;45.84;98558.44;2210494;81;20997;-61
2021/07/26 12:42:30;;;;;;;13.78;5.20;;;;;;;29.61;45.31;98558.78;2210091;81;21483;-60
2021/07/26 12:45:30;;;;;;;11.70;4.90;;;;;;;29.63;43.06;98565.63;2210469;81;20982;-60
2021/07/26 12:48:31;;;;;;;12.90;4.63;;;;;;;29.46;44.34;98565.38;2210720;81;20968;-73
2021/07/26 12:51:31;;;;;;;10.53;4.57;;;;;;;29.08;42.99;98561.41;2210623;81;21008;-60
2021/07/26 12:54:32;;;;;;;12.03;4.80;;;;;;;29.02;42.34;98579.31;2210679;81;20965;-60
2021/07/26 12:57:32;;;;;;;12.83;5.10;;;;;;;28.94;44.61;98560.72;2210608;81;21036;-63
2021/07/26 13:00:33;;;;;;;13.47;4.90;;;;;;;29.08;44.50;98569.02;2210525;81;21534;-62
2021/07/26 13:03:34;;;;;;;13.55;4.87;;;;;;;29.19;43.57;98559.35;2210462;81;21007;-60
2021/07/26 13:06:34;;;;;;;12.43;4.70;;;;;;;29.35;43.17;98565.59;2210494;81;21013;-61
2021/07/26 13:09:34;;;;;;;12.57;4.53;;;;;;;29.44;41.68;98550.42;2210832;81;20964;-60
2021/07/26 13:12:35;;;;;;;12.27;4.37;;;;;;;29.41;42.17;98556.28;2210333;80;21001;-60
2021/07/26 13:15:36;;;;;;;15.25;4.95;;;;;;;28.98;42.93;98561.40;2210289;81;21012;-60
2021/07/26 13:18:36;;;;;;;13.10;4.40;;;;;;;29.47;42.13;98547.31;2210552;81;20991;-60
2021/07/26 13:21:37;;;;;;;10.00;4.10;;;;;;;29.73;41.84;98558.35;2210433;81;20993;-60
2021/07/26 13:24:37;;;;;;;12.70;4.25;;;;;;;29.50;41.21;98565.23;2210460;81;21004;-60
2021/07/26 13:27:39;;;;;;;12.50;4.33;;;;;;;29.11;41.20;98564.52;2210721;81;20989;-60
2021/07/26 13:30:39;;;;;;;;;;;;;;;29.30;40.40;98564.06;2213427;81;20981;-60
2021/07/26 13:33:40;;;;;;;16.57;5.20;;;;;;;29.35;40.98;98564.75;2210748;80;20100;-60
2021/07/26 13:36:40;;;;;;;12.90;4.67;;;;;;;29.41;42.26;98557.12;2210658;81;21482;-60
2021/07/26 13:39:41;;;;;;;12.57;4.60;;;;;;;29.97;40.99;98563.42;2210622;81;20949;-66
2021/07/26 13:42:42;;;;;;;16.15;4.87;;;;;;;30.01;41.93;98547.55;2210302;81;20997;-67
2021/07/26 13:45:42;;;;;;;13.53;4.63;;;;;;;30.27;41.01;98553.17;2210928;81;21279;-60
2021/07/26 13:48:43;;;;;;;13.22;4.70;;;;;;;30.28;39.74;98562.92;2210621;81;21111;-60
2021/07/26 13:51:44;;;;;;;15.03;4.80;;;;;;;30.48;41.89;98547.80;2210751;81;21488;-61
2021/07/26 13:54:45;;;;;;;;;;;;;;;30.54;41.04;98551.47;2213330;81;20984;-60